American Spirit — WDC4277 — position and weather

sailwx.info

Track history (hours):
 
Tides and Currents Weather Stations Pressure Air Temp Water Temp Dewpoint Dewpoint Depression Visibility Wind Speed Wind Dir Waves Ship Positions

American Spirit

Owner: AMERICAN WORKBOATS INC, TERMINAL ISLAND, CA. More information available from US FCC via Universal Licensing System and Coast Guard Vessel Documentation Center.

Last reported at 2015-Jul-06 21:33 UTC. Time now 2015-Aug-03 10:36 UTC.
Position N 33°44' W 118°16'.
Warning: this ship's position is 27 days out of date.

Length 18 m; draft 10 m.

Type: Tug. MMSI: 367022090.

Date/timePositionNaut miles runAvg speedWind from/ knotsBaromVisibWave heightAir tempDewpointWater temp
2015-Jul-06 21:33N 33°44' W 118°16'0 0.0
2015-Jul-06 20:33N 33°44' W 118°16'0 0.0
2015-Jul-06 19:33N 33°44' W 118°16'0 0.0
2015-Jul-06 18:31N 33°44' W 118°16'0 0.0
2015-Jul-05 22:29N 33°44' W 118°16'0 0.4
2015-Jul-05 21:31N 33°44' W 118°16'9 1.9
2015-Jul-05 16:34N 33°50' W 118°24'9 2.7
2015-Jul-05 13:11N 33°44' W 118°16'0 0.0
2015-Jul-03 21:16N 33°44' W 118°16'2 2.3
2015-Jul-03 20:33N 33°43' W 118°15'8 8.2
2015-Jul-03 19:33N 33°44' W 118°25'7 6.6
2015-Jul-03 18:33N 33°51' W 118°24'0 0.4
2015-Jul-03 17:33N 33°50' W 118°24'5 5.0
2015-Jul-03 16:28N 33°45' W 118°26'9 4.8
2015-Jul-03 14:33N 33°43' W 118°15'1 1.2
2015-Jul-03 13:33N 33°44' W 118°16'0 0.1
2015-Jul-03 12:32N 33°44' W 118°16'0 0.0
2015-Jul-02 19:30N 33°44' W 118°16'0 0.0
2015-Jul-02 18:34N 33°44' W 118°16'0 0.0
2015-Jul-02 17:34N 33°44' W 118°16'0 0.0
2015-Jul-02 16:29N 33°44' W 118°16'  
2015-Jun-29 22:04N 33°44' W 118°16'0 0.2
2015-Jun-29 21:33N 33°44' W 118°16'  
Track history (hours):
 
Tides and Currents Weather Stations Pressure Air Temp Water Temp Dewpoint Dewpoint Depression Visibility Wind Speed Wind Dir Waves Ship Positions

American Spirit

Owner: AMERICAN WORKBOATS INC, TERMINAL ISLAND, CA. More information available from US FCC via Universal Licensing System and Coast Guard Vessel Documentation Center.

Last reported at 2015-Jul-06 21:33 UTC. Time now 2015-Aug-03 10:36 UTC.
Position N 33°44' W 118°16'.
Warning: this ship's position is 27 days out of date.

Length 18 m; draft 10 m.

Type: Tug. MMSI: 367022090.

Date/timePositionNaut miles runAvg speedWind from/ knotsBaromVisibWave heightAir tempDewpointWater temp
2015-Jul-06 21:33N 33°44' W 118°16'0 0.0
2015-Jul-06 20:33N 33°44' W 118°16'0 0.0
2015-Jul-06 19:33N 33°44' W 118°16'0 0.0
2015-Jul-06 18:31N 33°44' W 118°16'0 0.0
2015-Jul-05 22:29N 33°44' W 118°16'0 0.4
2015-Jul-05 21:31N 33°44' W 118°16'9 1.9
2015-Jul-05 16:34N 33°50' W 118°24'9 2.7
2015-Jul-05 13:11N 33°44' W 118°16'0 0.0
2015-Jul-03 21:16N 33°44' W 118°16'2 2.3
2015-Jul-03 20:33N 33°43' W 118°15'8 8.2
2015-Jul-03 19:33N 33°44' W 118°25'7 6.6
2015-Jul-03 18:33N 33°51' W 118°24'0 0.4
2015-Jul-03 17:33N 33°50' W 118°24'5 5.0
2015-Jul-03 16:28N 33°45' W 118°26'9 4.8
2015-Jul-03 14:33N 33°43' W 118°15'1 1.2
2015-Jul-03 13:33N 33°44' W 118°16'0 0.1
2015-Jul-03 12:32N 33°44' W 118°16'0 0.0
2015-Jul-02 19:30N 33°44' W 118°16'0 0.0
2015-Jul-02 18:34N 33°44' W 118°16'0 0.0
2015-Jul-02 17:34N 33°44' W 118°16'0 0.0
2015-Jul-02 16:29N 33°44' W 118°16'  
2015-Jun-29 22:04N 33°44' W 118°16'0 0.2
2015-Jun-29 21:33N 33°44' W 118°16'  

Dump ship's entire track history